Time;durP1;ratioP1;P1;durP2;ratioP2;P2;SDS_P1;SDS_P2;PMS_P1;PMS_P2;Temp;Humidity;BMP_temperature;BMP_pressure;BME280_temperature;BME280_humidity;BME280_pressure;Samples;Min_cycle;Max_cycle;Signal;HPM_P1;HPM_P2
2021/10/02 10:05:15;;;;;;;5.10;3.40;;;;;;;;;;5076124;28;20534;-58
2021/10/02 10:07:52;;;;;;;12.27;11.07;;;;;;;;;;5098055;28;20440;-58
2021/10/02 10:10:26;;;;;;;11.37;10.27;;;;;;;;;;5097531;28;20420;-55
2021/10/02 10:12:53;;;;;;;7.70;7.00;;;;;;;;;;5097554;28;20444;-55
2021/10/02 10:15:28;;;;;;;6.50;5.07;;;;;;;;;;5097123;28;20505;-53
2021/10/02 10:17:56;;;;;;;3.77;2.30;;;;;;;;;;5097745;28;20501;-60
2021/10/02 10:20:32;;;;;;;5.80;3.20;;;;;;;;;;5097316;28;20456;-56
2021/10/02 10:23:29;;;;;;;4.67;3.13;;;;;;;;;;5089929;28;20428;-55
2021/10/02 10:25:58;;;;;;;5.83;3.13;;;;;;;;;;5097500;28;20452;-53
2021/10/02 10:28:27;;;;;;;5.40;2.40;;;;;;;;;;5093541;28;20440;-54
2021/10/02 10:31:16;;;;;;;3.63;1.70;;;;;;;;;;5090370;28;20478;-59
2021/10/02 10:33:44;;;;;;;6.70;1.30;;;;;;;;;;5091425;28;20459;-56
2021/10/02 10:36:32;;;;;;;4.47;1.77;;;;;;;;;;5096932;28;20548;-57
2021/10/02 10:39:00;;;;;;;5.73;1.77;;;;;;;;;;5079758;28;20693;-57
2021/10/02 10:41:29;;;;;;;4.40;2.07;;;;;;;;;;5096675;28;20436;-58
2021/10/02 10:43:58;;;;;;;4.90;2.60;;;;;;;;;;5079711;28;20451;-56
2021/10/02 10:46:28;;;;;;;2.50;1.20;;;;;;;;;;5096510;28;20448;-56
2021/10/02 10:48:58;;;;;;;2.13;0.80;;;;;;;;;;5096490;28;20504;-57
2021/10/02 10:51:46;;;;;;;2.43;1.10;;;;;;;;;;5090403;28;20436;-55
2021/10/02 10:54:21;;;;;;;3.37;1.87;;;;;;;;;;5076545;28;20512;-60
2021/10/02 10:56:52;;;;;;;2.63;1.13;;;;;;;;;;5059899;28;20547;-51
2021/10/02 10:59:20;;;;;;;2.97;1.20;;;;;;;;;;5086777;28;20486;-57
2021/10/02 11:01:48;;;;;;;2.90;1.50;;;;;;;;;;5096226;28;20441;-57
2021/10/02 11:04:34;;;;;;;1.80;0.80;;;;;;;;;;5095595;28;20619;-53
2021/10/02 11:07:06;;;;;;;2.90;1.27;;;;;;;;;;5095639;28;20464;-53
2021/10/02 11:09:38;;;;;;;3.70;1.80;;;;;;;;;;5091027;28;20469;-53
2021/10/02 11:12:17;;;;;;;4.73;1.77;;;;;;;;;;5075816;28;20496;-57
2021/10/02 11:15:02;;;;;;;2.67;1.10;;;;;;;;;;5074425;28;20489;-60
2021/10/02 11:17:49;;;;;;;3.80;2.07;;;;;;;;;;5076709;28;20517;-58
2021/10/02 11:20:37;;;;;;;4.90;2.30;;;;;;;;;;5075775;28;20450;-58
2021/10/02 11:23:31;;;;;;;3.60;1.47;;;;;;;;;;5076053;28;20508;-56
2021/10/02 11:26:14;;;;;;;3.93;1.80;;;;;;;;;;5075984;28;20471;-55
2021/10/02 11:28:44;;;;;;;4.37;1.97;;;;;;;;;;5073705;28;20449;-57
2021/10/02 11:31:34;;;;;;;3.00;1.40;;;;;;;;;;5075549;28;20455;-56
2021/10/02 11:34:02;;;;;;;2.47;1.40;;;;;;;;;;5075618;28;20477;-53
2021/10/02 11:36:46;;;;;;;3.23;1.77;;;;;;;;;;5075758;28;20476;-56
2021/10/02 11:39:15;;;;;;;3.70;2.10;;;;;;;;;;5075601;28;20456;-60
2021/10/02 11:41:47;;;;;;;4.63;2.27;;;;;;;;;;5074756;28;20534;-61
2021/10/02 11:44:31;;;;;;;12.43;8.53;;;;;;;;;;5074825;28;20487;-53
2021/10/02 11:47:13;;;;;;;4.30;2.57;;;;;;;;;;5074517;28;20456;-63
2021/10/02 11:49:42;;;;;;;3.00;1.60;;;;;;;;;;5075150;28;20457;-57
2021/10/02 11:52:16;;;;;;;3.93;2.33;;;;;;;;;;5075517;28;20453;-54
2021/10/02 11:54:43;;;;;;;3.83;2.03;;;;;;;;;;5075124;28;20445;-55
2021/10/02 11:57:11;;;;;;;3.60;1.80;;;;;;;;;;5074931;28;20511;-53
2021/10/02 11:59:44;;;;;;;4.00;2.33;;;;;;;;;;5074893;28;20442;-59
2021/10/02 12:02:12;;;;;;;5.50;2.10;;;;;;;;;;5075240;28;20763;-50
2021/10/02 12:04:40;;;;;;;4.60;1.90;;;;;;;;;;5075189;28;20457;-54
2021/10/02 12:07:10;;;;;;;5.03;2.17;;;;;;;;;;5075144;28;20551;-57
2021/10/02 12:09:37;;;;;;;2.73;1.40;;;;;;;;;;5075078;28;20429;-50
2021/10/02 12:12:11;;;;;;;4.70;2.20;;;;;;;;;;5075771;28;20484;-58
2021/10/02 12:14:43;;;;;;;4.07;1.63;;;;;;;;;;5074613;28;20488;-59
2021/10/02 12:17:12;;;;;;;3.53;1.93;;;;;;;;;;5075248;28;20493;-59
2021/10/02 12:19:56;;;;;;;4.20;2.10;;;;;;;;;;5075914;28;20451;-56
2021/10/02 12:22:29;;;;;;;4.10;2.27;;;;;;;;;;5086682;28;20488;-56
2021/10/02 12:24:58;;;;;;;4.73;1.70;;;;;;;;;;5089653;28;20468;-59
2021/10/02 12:30:15;;;;;;;3.17;1.40;;;;;;;;;;5075181;28;20457;-52
2021/10/02 12:33:12;;;;;;;5.40;1.40;;;;;;;;;;5084333;28;20440;-57
2021/10/02 12:35:57;;;;;;;3.77;1.57;;;;;;;;;;5095398;28;20495;-52
2021/10/02 12:38:51;;;;;;;5.37;2.67;;;;;;;;;;5093081;28;20439;-53
2021/10/02 12:41:21;;;;;;;3.87;1.63;;;;;;;;;;5057884;28;20461;-53
2021/10/02 12:43:49;;;;;;;6.30;2.30;;;;;;;;;;5075030;28;20456;-55
2021/10/02 12:46:19;;;;;;;4.17;2.10;;;;;;;;;;5074895;28;20464;-57
2021/10/02 12:48:53;;;;;;;4.60;2.57;;;;;;;;;;5092500;28;20504;-54
2021/10/02 12:51:27;;;;;;;6.87;5.27;;;;;;;;;;5095311;28;20515;-54
2021/10/02 12:54:00;;;;;;;4.80;2.40;;;;;;;;;;5094886;28;20460;-57
2021/10/02 12:56:29;;;;;;;5.63;2.60;;;;;;;;;;5093115;28;20480;-61
2021/10/02 12:59:34;;;;;;;6.13;3.97;;;;;;;;;;5096749;28;20466;-55
2021/10/02 13:02:26;;;;;;;33.23;25.60;;;;;;;;;;5079170;28;20504;-55
2021/10/02 13:04:54;;;;;;;10.10;7.00;;;;;;;;;;5077535;28;20489;-55
2021/10/02 13:07:25;;;;;;;7.53;4.77;;;;;;;;;;5079276;28;20453;-57
2021/10/02 13:09:58;;;;;;;18.13;13.53;;;;;;;;;;5078077;28;20493;-54
2021/10/02 13:12:28;;;;;;;16.90;12.50;;;;;;;;;;5078661;28;20456;-57
2021/10/02 13:15:03;;;;;;;3.83;2.07;;;;;;;;;;5079022;28;20441;-59
2021/10/02 13:20:23;;;;;;;4.73;2.17;;;;;;;;;;5057794;28;20469;-56
2021/10/02 13:22:51;;;;;;;5.10;1.90;;;;;;;;;;5072455;28;20467;-54
2021/10/02 13:25:33;;;;;;;7.00;2.93;;;;;;;;;;5078452;28;20496;-60
2021/10/02 13:28:02;;;;;;;3.10;1.87;;;;;;;;;;5078656;28;20453;-53
2021/10/02 13:31:02;;;;;;;4.13;2.27;;;;;;;;;;5078381;28;20433;-56
2021/10/02 13:33:30;;;;;;;5.40;2.70;;;;;;;;;;5081719;28;20487;-57
2021/10/02 13:35:59;;;;;;;3.10;1.90;;;;;;;;;;5097863;28;20495;-56
2021/10/02 13:38:50;;;;;;;7.80;2.10;;;;;;;;;;5097874;28;20451;-61
2021/10/02 13:41:18;;;;;;;3.63;1.93;;;;;;;;;;5083580;28;20440;-53
2021/10/02 13:43:54;;;;;;;3.93;2.00;;;;;;;;;;5097950;28;20511;-53
2021/10/02 13:46:40;;;;;;;4.03;2.30;;;;;;;;;;5097612;28;20486;-56
2021/10/02 13:49:12;;;;;;;3.30;2.20;;;;;;;;;;5084405;28;20456;-55
2021/10/02 13:54:32;;;;;;;4.47;2.07;;;;;;;;;;5094648;28;20898;-54
2021/10/02 13:57:06;;;;;;;3.20;1.50;;;;;;;;;;5083342;28;20504;-62
2021/10/02 14:00:10;;;;;;;3.80;2.03;;;;;;;;;;5083772;28;20444;-56
2021/10/02 14:02:39;;;;;;;5.03;2.03;;;;;;;;;;5096830;28;20456;-57
2021/10/02 14:05:19;;;;;;;6.40;2.00;;;;;;;;;;5097156;28;20455;-54
2021/10/02 14:08:00;;;;;;;3.07;1.70;;;;;;;;;;5084864;28;20433;-58
2021/10/02 14:10:38;;;;;;;3.80;1.93;;;;;;;;;;5095737;28;20490;-55
2021/10/02 14:13:05;;;;;;;4.87;1.70;;;;;;;;;;5096444;28;20448;-52
2021/10/02 14:15:49;;;;;;;4.60;1.40;;;;;;;;;;5097390;28;20448;-54
2021/10/02 14:18:19;;;;;;;2.67;1.30;;;;;;;;;;5097297;28;20428;-56
2021/10/02 14:20:46;;;;;;;6.10;2.17;;;;;;;;;;5096577;28;20436;-56
2021/10/02 14:23:34;;;;;;;3.13;1.47;;;;;;;;;;5094022;28;20458;-55
2021/10/02 14:26:24;;;;;;;6.83;1.30;;;;;;;;;;5068750;28;20444;-56
2021/10/02 14:28:52;;;;;;;8.10;6.60;;;;;;;;;;5094433;28;20432;-59
2021/10/02 14:31:20;;;;;;;5.93;1.70;;;;;;;;;;5096004;28;20456;-56
2021/10/02 14:34:09;;;;;;;2.67;1.40;;;;;;;;;;5084446;28;20520;-56
2021/10/02 14:36:40;;;;;;;10.23;3.80;;;;;;;;;;5082260;28;20566;-56
2021/10/02 14:39:07;;;;;;;7.00;3.37;;;;;;;;;;5096405;28;20557;-56
2021/10/02 14:41:35;;;;;;;10.27;6.50;;;;;;;;;;5096275;28;20444;-57
2021/10/02 14:44:25;;;;;;;12.53;8.47;;;;;;;;;;5096647;28;20505;-55
2021/10/02 14:46:52;;;;;;;4.40;2.40;;;;;;;;;;5095986;28;20467;-62
2021/10/02 14:49:25;;;;;;;34.73;27.97;;;;;;;;;;5096269;28;20513;-61
2021/10/02 14:52:03;;;;;;;9.07;5.80;;;;;;;;;;5097027;28;20436;-57
2021/10/02 14:54:43;;;;;;;6.77;4.00;;;;;;;;;;5097116;28;20444;-54
2021/10/02 14:57:44;;;;;;;7.60;4.27;;;;;;;;;;5096379;28;20506;-58
2021/10/02 15:00:22;;;;;;;10.50;6.70;;;;;;;;;;5078610;28;20534;-51
2021/10/02 15:03:03;;;;;;;9.40;5.33;;;;;;;;;;5093052;28;20440;-53
2021/10/02 15:05:32;;;;;;;11.77;7.67;;;;;;;;;;5094160;28;20612;-60
2021/10/02 15:08:01;;;;;;;7.77;4.63;;;;;;;;;;5095910;28;20437;-56
2021/10/02 15:10:32;;;;;;;25.27;19.00;;;;;;;;;;5096201;28;20449;-59
2021/10/02 15:13:01;;;;;;;16.27;7.20;;;;;;;;;;5096094;28;20463;-54
2021/10/02 15:15:55;;;;;;;15.23;9.33;;;;;;;;;;5096074;28;20436;-56
2021/10/02 15:18:37;;;;;;;7.90;3.30;;;;;;;;;;5091016;28;20440;-53
2021/10/02 15:27:36;;;;;;;12.63;7.47;;;;;;;;;;5113191;28;20223;-58
2021/10/02 15:30:06;;;;;;;8.90;5.87;;;;;;;;;;5112954;28;20454;-59
2021/10/02 15:32:36;;;;;;;9.23;6.57;;;;;;;;;;5112411;28;20469;-56
2021/10/02 15:35:05;;;;;;;8.73;4.43;;;;;;;;;;5113042;28;20646;-55
2021/10/02 15:37:33;;;;;;;16.63;10.70;;;;;;;;;;5094022;28;20458;-53
2021/10/02 15:40:19;;;;;;;10.50;4.60;;;;;;;;;;5098975;28;20531;-57
2021/10/02 15:42:49;;;;;;;21.37;12.73;;;;;;;;;;5095475;28;20515;-55
2021/10/02 15:48:26;;;;;;;12.20;7.20;;;;;;;;;;5090516;28;20444;-56
2021/10/02 15:50:56;;;;;;;5.57;3.90;;;;;;;;;;5092078;28;20448;-58
2021/10/02 15:53:35;;;;;;;13.10;7.70;;;;;;;;;;5092170;28;20459;-63
2021/10/02 15:56:10;;;;;;;22.03;14.20;;;;;;;;;;5092893;28;20456;-52
2021/10/02 15:58:55;;;;;;;16.40;7.13;;;;;;;;;;5108002;28;20505;-55
2021/10/02 16:01:28;;;;;;;11.93;6.70;;;;;;;;;;5109635;28;20501;-50
2021/10/02 16:04:09;;;;;;;9.90;4.93;;;;;;;;;;5112679;28;20481;-53
2021/10/02 16:06:55;;;;;;;27.20;20.40;;;;;;;;;;5111857;28;20605;-57
2021/10/02 16:09:25;;;;;;;21.37;15.87;;;;;;;;;;5111743;28;20438;-56
2021/10/02 16:11:54;;;;;;;27.47;19.07;;;;;;;;;;5111798;28;20531;-53
2021/10/02 16:14:35;;;;;;;11.10;6.07;;;;;;;;;;5106864;28;20576;-54
2021/10/02 16:17:09;;;;;;;8.60;5.47;;;;;;;;;;5103159;28;20436;-52
2021/10/02 16:19:51;;;;;;;13.53;9.10;;;;;;;;;;5091840;28;20536;-57
2021/10/02 16:22:25;;;;;;;10.03;5.07;;;;;;;;;;5091092;28;20492;-52
2021/10/02 16:24:55;;;;;;;9.07;5.60;;;;;;;;;;5108961;28;20467;-55
2021/10/02 16:27:23;;;;;;;13.90;7.27;;;;;;;;;;5108300;28;20461;-59
2021/10/02 16:29:51;;;;;;;15.30;9.90;;;;;;;;;;5106137;28;20435;-61
2021/10/02 16:32:27;;;;;;;8.90;4.73;;;;;;;;;;5106134;28;20432;-61
2021/10/02 16:35:00;;;;;;;31.53;22.57;;;;;;;;;;5094943;28;20463;-60
2021/10/02 16:37:27;;;;;;;18.83;9.57;;;;;;;;;;5093352;28;20444;-56
2021/10/02 16:39:56;;;;;;;19.50;14.00;;;;;;;;;;5093417;28;20463;-61
2021/10/02 16:42:24;;;;;;;10.40;7.33;;;;;;;;;;5106428;28;20512;-57
2021/10/02 16:45:06;;;;;;;40.37;28.40;;;;;;;;;;5096426;28;20487;-59
2021/10/02 16:47:58;;;;;;;9.60;6.37;;;;;;;;;;5109288;28;20481;-59
2021/10/02 16:50:27;;;;;;;6.30;3.20;;;;;;;;;;5107208;28;20509;-53
2021/10/02 16:52:55;;;;;;;17.37;10.67;;;;;;;;;;5106251;28;20459;-53
2021/10/02 16:55:28;;;;;;;16.03;10.43;;;;;;;;;;5102032;28;20474;-60
2021/10/02 16:58:01;;;;;;;9.37;4.90;;;;;;;;;;5092572;28;20482;-57
2021/10/02 17:01:03;;;;;;;18.97;11.73;;;;;;;;;;5105115;28;20436;-60
2021/10/02 17:06:43;;;;;;;52.70;32.23;;;;;;;;;;5095212;28;20548;-56
2021/10/02 17:09:30;;;;;;;30.30;17.83;;;;;;;;;;5091561;28;20445;-55
2021/10/02 17:12:16;;;;;;;8.97;4.03;;;;;;;;;;5091236;28;20444;-58
2021/10/02 17:17:58;;;;;;;24.57;17.90;;;;;;;;;;5091101;28;20452;-61
2021/10/02 17:20:28;;;;;;;15.70;10.20;;;;;;;;;;5090798;28;20460;-58
2021/10/02 17:23:11;;;;;;;41.77;30.37;;;;;;;;;;5090522;28;20462;-54
2021/10/02 17:25:45;;;;;;;24.63;16.40;;;;;;;;;;5073281;28;20496;-60
2021/10/02 17:28:36;;;;;;;11.20;7.97;;;;;;;;;;5123556;28;20533;-57
2021/10/02 17:31:05;;;;;;;21.40;13.13;;;;;;;;;;5130857;28;20434;-57
2021/10/02 17:36:56;;;;;;;8.70;3.50;;;;;;;;;;5121907;28;20495;-61
2021/10/02 17:39:42;;;;;;;18.03;9.53;;;;;;;;;;5115087;28;20567;-56
2021/10/02 17:42:11;;;;;;;10.37;6.10;;;;;;;;;;5130991;28;20468;-58
2021/10/02 17:44:58;;;;;;;6.13;2.90;;;;;;;;;;5131344;28;20482;-56
2021/10/02 17:47:26;;;;;;;8.57;5.00;;;;;;;;;;5131130;28;20458;-60
2021/10/02 17:50:09;;;;;;;6.70;4.37;;;;;;;;;;5130275;28;20438;-60
2021/10/02 17:52:59;;;;;;;5.83;3.40;;;;;;;;;;5131394;28;20474;-59
2021/10/02 17:55:33;;;;;;;8.43;4.63;;;;;;;;;;5131235;28;20462;-58
2021/10/02 17:58:12;;;;;;;12.57;5.60;;;;;;;;;;5131700;28;20608;-59
2021/10/02 18:00:45;;;;;;;9.00;4.70;;;;;;;;;;5131136;28;20465;-61
2021/10/02 18:03:15;;;;;;;15.30;10.13;;;;;;;;;;5131361;28;20438;-55
2021/10/02 18:05:43;;;;;;;21.97;11.87;;;;;;;;;;5130580;28;20972;-61
2021/10/02 18:08:15;;;;;;;12.40;7.30;;;;;;;;;;5131602;28;20451;-61
2021/10/02 18:10:44;;;;;;;11.93;5.60;;;;;;;;;;5130378;28;20462;-59
2021/10/02 18:13:12;;;;;;;20.93;12.43;;;;;;;;;;5131841;28;20458;-64
2021/10/02 18:15:41;;;;;;;41.50;24.00;;;;;;;;;;5131249;28;20463;-58
2021/10/02 18:18:08;;;;;;;8.40;4.33;;;;;;;;;;5108567;28;20470;-59
2021/10/02 18:20:53;;;;;;;16.67;8.67;;;;;;;;;;5100323;28;20429;-56
2021/10/02 18:23:25;;;;;;;40.73;29.20;;;;;;;;;;5131021;28;20529;-61
2021/10/02 18:26:18;;;;;;;13.83;8.70;;;;;;;;;;5116283;28;20471;-60
2021/10/02 18:28:50;;;;;;;56.07;40.70;;;;;;;;;;5071014;28;20444;-60
2021/10/02 18:31:24;;;;;;;53.10;38.37;;;;;;;;;;5076809;28;20525;-56
2021/10/02 18:33:59;;;;;;;65.53;38.93;;;;;;;;;;5077599;28;20578;-57
2021/10/02 18:36:29;;;;;;;26.97;17.30;;;;;;;;;;5076830;28;20461;-60
2021/10/02 18:38:57;;;;;;;33.70;22.93;;;;;;;;;;5061919;28;20446;-56
2021/10/02 18:41:25;;;;;;;58.43;40.50;;;;;;;;;;5062995;28;20475;-56
2021/10/02 18:43:54;;;;;;;59.00;38.03;;;;;;;;;;5075677;28;20860;-59
2021/10/02 18:46:21;;;;;;;44.03;27.33;;;;;;;;;;5075722;28;20492;-59
2021/10/02 18:49:03;;;;;;;30.23;19.90;;;;;;;;;;5076298;28;20476;-61
2021/10/02 18:51:31;;;;;;;28.60;18.77;;;;;;;;;;5075880;28;20445;-59
2021/10/02 18:53:58;;;;;;;16.13;8.80;;;;;;;;;;5076082;28;20453;-58
2021/10/02 18:56:29;;;;;;;35.57;20.10;;;;;;;;;;5075920;28;20442;-54
2021/10/02 18:59:01;;;;;;;14.93;9.33;;;;;;;;;;5075968;28;20492;-57
2021/10/02 19:01:29;;;;;;;54.47;36.07;;;;;;;;;;5076269;28;20449;-60
2021/10/02 19:03:59;;;;;;;5.17;3.00;;;;;;;;;;5076103;28;20456;-56
2021/10/02 19:06:32;;;;;;;3.37;1.90;;;;;;;;;;5076092;28;20483;-57
2021/10/02 19:09:19;;;;;;;4.40;2.50;;;;;;;;;;5075991;28;20449;-58
2021/10/02 19:11:53;;;;;;;6.23;2.70;;;;;;;;;;5075848;28;20496;-57
2021/10/02 19:14:23;;;;;;;7.73;2.87;;;;;;;;;;5096018;28;20424;-56
2021/10/02 19:17:03;;;;;;;6.13;2.60;;;;;;;;;;5096001;28;20448;-58
2021/10/02 19:19:32;;;;;;;4.13;2.40;;;;;;;;;;5096324;28;20466;-60
2021/10/02 19:22:00;;;;;;;32.70;24.33;;;;;;;;;;5096031;28;20472;-55
2021/10/02 19:24:36;;;;;;;16.40;11.27;;;;;;;;;;5096948;28;20484;-61
2021/10/02 19:30:42;;;;;;;4.37;2.40;;;;;;;;;;5111010;28;20812;-57
2021/10/02 19:33:14;;;;;;;4.13;2.50;;;;;;;;;;5097277;28;20480;-51
2021/10/02 19:35:41;;;;;;;8.07;5.30;;;;;;;;;;5096498;28;20459;-59
2021/10/02 19:38:21;;;;;;;21.57;8.40;;;;;;;;;;5096295;28;20535;-64
2021/10/02 19:40:50;;;;;;;23.73;16.73;;;;;;;;;;5122972;28;20561;-58
2021/10/02 19:43:18;;;;;;;19.70;10.83;;;;;;;;;;5137122;28;20442;-57
2021/10/02 19:45:45;;;;;;;10.73;5.07;;;;;;;;;;5136779;28;20500;-55
2021/10/02 19:52:03;;;;;;;11.80;8.97;;;;;;;;;;5107256;28;20501;-58
2021/10/02 19:55:03;;;;;;;7.97;5.07;;;;;;;;;;5094817;28;20456;-57
2021/10/02 19:58:15;;;;;;;44.60;34.57;;;;;;;;;;5095849;28;20452;-56
2021/10/02 20:00:44;;;;;;;7.47;5.13;;;;;;;;;;5115829;28;20484;-60
2021/10/02 20:03:12;;;;;;;20.80;16.67;;;;;;;;;;5094222;28;20476;-58
2021/10/02 20:05:39;;;;;;;6.87;4.00;;;;;;;;;;5095226;28;20468;-57
2021/10/02 20:08:07;;;;;;;7.30;4.50;;;;;;;;;;5095453;28;20456;-60
2021/10/02 20:10:53;;;;;;;13.07;9.13;;;;;;;;;;5097840;28;20456;-58
2021/10/02 20:13:22;;;;;;;18.40;11.10;;;;;;;;;;5095171;28;20460;-57
2021/10/02 20:15:50;;;;;;;13.57;9.57;;;;;;;;;;5095498;28;20463;-55
2021/10/02 20:18:36;;;;;;;26.87;17.77;;;;;;;;;;5095990;28;20452;-59
2021/10/02 20:21:05;;;;;;;12.30;7.53;;;;;;;;;;5095654;28;20470;-57
2021/10/02 20:23:33;;;;;;;26.17;15.90;;;;;;;;;;5095307;28;20475;-57
2021/10/02 20:26:02;;;;;;;17.90;11.70;;;;;;;;;;5095743;28;20492;-54
2021/10/02 20:28:38;;;;;;;24.43;14.70;;;;;;;;;;5095734;28;20835;-59
2021/10/02 20:33:50;;;;;;;53.17;36.20;;;;;;;;;;5079964;28;20455;-56
2021/10/02 20:36:30;;;;;;;48.23;32.37;;;;;;;;;;5095467;28;20433;-57
2021/10/02 20:39:16;;;;;;;17.40;11.47;;;;;;;;;;5095452;28;20616;-58
2021/10/02 20:41:46;;;;;;;11.90;7.90;;;;;;;;;;5095759;28;20637;-59
2021/10/02 20:44:21;;;;;;;27.27;16.50;;;;;;;;;;5095578;28;20440;-59
2021/10/02 20:47:23;;;;;;;13.13;6.63;;;;;;;;;;5094817;28;20475;-56
2021/10/02 20:52:45;;;;;;;21.47;11.27;;;;;;;;;;5093358;28;20549;-53
2021/10/02 20:55:15;;;;;;;13.87;9.63;;;;;;;;;;5077466;28;20444;-58
2021/10/02 20:57:48;;;;;;;5.00;3.57;;;;;;;;;;5095615;28;20456;-55
2021/10/02 21:00:39;;;;;;;19.97;14.53;;;;;;;;;;5082099;28;20459;-53
2021/10/02 21:03:09;;;;;;;17.23;11.80;;;;;;;;;;5094992;28;20466;-53
2021/10/02 21:05:49;;;;;;;24.60;16.70;;;;;;;;;;5080355;28;20483;-61
2021/10/02 21:08:17;;;;;;;45.33;33.20;;;;;;;;;;5100225;28;20874;-57
2021/10/02 21:10:49;;;;;;;52.83;37.57;;;;;;;;;;5095205;28;20448;-55
2021/10/02 21:13:18;;;;;;;11.23;7.60;;;;;;;;;;5094569;28;20678;-63
2021/10/02 21:15:47;;;;;;;33.40;24.03;;;;;;;;;;5095047;28;20489;-60
2021/10/02 21:18:16;;;;;;;26.40;17.67;;;;;;;;;;5094932;28;20471;-60
2021/10/02 21:20:50;;;;;;;24.83;16.83;;;;;;;;;;5094868;28;20444;-55
2021/10/02 21:23:17;;;;;;;15.10;7.97;;;;;;;;;;5094985;28;20460;-55
2021/10/02 21:25:59;;;;;;;11.80;8.63;;;;;;;;;;5094572;28;20483;-59
2021/10/02 21:28:28;;;;;;;6.13;4.67;;;;;;;;;;5094676;28;20452;-56
2021/10/02 21:30:56;;;;;;;45.13;37.63;;;;;;;;;;5094386;28;20456;-60
2021/10/02 21:33:26;;;;;;;34.43;22.07;;;;;;;;;;5104942;28;20436;-57
2021/10/02 21:35:54;;;;;;;10.83;8.27;;;;;;;;;;5095310;28;20444;-54
2021/10/02 21:38:21;;;;;;;21.77;15.50;;;;;;;;;;5094751;28;20479;-57
2021/10/02 21:40:51;;;;;;;11.70;8.40;;;;;;;;;;5094278;28;20497;-55
2021/10/02 21:43:20;;;;;;;12.20;9.20;;;;;;;;;;5095156;28;20468;-61
2021/10/02 21:45:54;;;;;;;11.67;5.67;;;;;;;;;;5094243;28;20494;-60
2021/10/02 21:48:24;;;;;;;7.97;4.97;;;;;;;;;;5094884;28;20428;-55
2021/10/02 21:50:56;;;;;;;19.67;12.03;;;;;;;;;;5095194;28;20479;-60
2021/10/02 21:53:37;;;;;;;33.17;25.60;;;;;;;;;;5098360;28;20483;-59
2021/10/02 21:56:08;;;;;;;17.07;12.03;;;;;;;;;;5098015;28;20455;-55
2021/10/02 21:58:37;;;;;;;8.80;4.70;;;;;;;;;;5098188;28;20490;-57
2021/10/02 22:01:28;;;;;;;10.20;5.13;;;;;;;;;;5089941;28;20445;-56
2021/10/02 22:03:55;;;;;;;37.27;26.20;;;;;;;;;;5076818;28;20493;-61
2021/10/02 22:06:23;;;;;;;14.50;9.93;;;;;;;;;;5079412;28;20498;-53
2021/10/02 22:09:13;;;;;;;10.53;6.23;;;;;;;;;;5096345;28;20416;-58
2021/10/02 22:11:41;;;;;;;12.30;8.17;;;;;;;;;;5096714;28;20486;-61
2021/10/02 22:14:08;;;;;;;12.63;8.60;;;;;;;;;;5096250;28;20443;-59
2021/10/02 22:16:50;;;;;;;9.33;6.33;;;;;;;;;;5096772;28;20498;-61
2021/10/02 22:19:21;;;;;;;14.70;9.07;;;;;;;;;;5096562;28;20454;-60
2021/10/02 22:21:48;;;;;;;6.60;5.60;;;;;;;;;;5097057;28;20466;-58
2021/10/02 22:24:20;;;;;;;12.13;7.63;;;;;;;;;;5096536;28;20455;-62
2021/10/02 22:26:49;;;;;;;6.13;4.87;;;;;;;;;;5096340;28;20492;-60
2021/10/02 22:29:17;;;;;;;6.17;4.23;;;;;;;;;;5098850;28;20436;-57
2021/10/02 22:31:51;;;;;;;13.20;11.43;;;;;;;;;;5101707;28;20451;-56
2021/10/02 22:34:19;;;;;;;14.30;8.80;;;;;;;;;;5115966;28;20443;-57
2021/10/02 22:36:48;;;;;;;14.20;10.67;;;;;;;;;;5096298;28;20460;-58
2021/10/02 22:39:16;;;;;;;5.73;4.13;;;;;;;;;;5096003;28;20475;-56
2021/10/02 22:41:44;;;;;;;8.20;5.50;;;;;;;;;;5096062;28;20436;-59
2021/10/02 22:44:11;;;;;;;36.97;25.37;;;;;;;;;;5096512;28;20440;-59
2021/10/02 22:46:42;;;;;;;31.47;20.17;;;;;;;;;;5095709;28;20913;-58
2021/10/02 22:49:15;;;;;;;6.77;4.10;;;;;;;;;;5096785;28;20440;-55
2021/10/02 22:51:43;;;;;;;7.97;5.30;;;;;;;;;;5096232;28;21020;-58
2021/10/02 22:54:10;;;;;;;27.47;16.87;;;;;;;;;;5095678;28;20476;-49
2021/10/02 22:57:14;;;;;;;32.03;19.97;;;;;;;;;;5096092;28;20443;-51
2021/10/02 22:59:41;;;;;;;11.47;7.47;;;;;;;;;;5095990;28;20802;-55
2021/10/02 23:02:09;;;;;;;17.50;11.80;;;;;;;;;;5096134;28;20456;-57
2021/10/02 23:04:56;;;;;;;8.80;5.23;;;;;;;;;;5095975;28;20451;-60
2021/10/02 23:07:25;;;;;;;13.03;7.40;;;;;;;;;;5095312;28;20498;-52
2021/10/02 23:09:52;;;;;;;6.63;4.00;;;;;;;;;;5094262;28;20490;-52
2021/10/02 23:12:43;;;;;;;12.33;6.57;;;;;;;;;;5095358;28;20509;-59
2021/10/02 23:15:11;;;;;;;8.23;5.67;;;;;;;;;;5095003;28;20440;-50
2021/10/02 23:17:45;;;;;;;4.77;3.73;;;;;;;;;;5095779;28;20459;-57
2021/10/02 23:20:30;;;;;;;7.90;5.53;;;;;;;;;;5096797;28;20456;-55
2021/10/02 23:23:01;;;;;;;7.73;5.77;;;;;;;;;;5096212;28;20484;-59
2021/10/02 23:25:29;;;;;;;6.47;4.33;;;;;;;;;;5095457;28;20452;-56
2021/10/02 23:27:57;;;;;;;5.50;3.27;;;;;;;;;;5096587;28;20506;-57
2021/10/02 23:30:24;;;;;;;12.93;9.93;;;;;;;;;;5095736;28;20448;-56
2021/10/02 23:32:52;;;;;;;6.17;4.70;;;;;;;;;;5095974;28;20452;-56
2021/10/02 23:35:22;;;;;;;8.40;5.47;;;;;;;;;;5095650;28;20444;-60
2021/10/02 23:37:49;;;;;;;10.47;6.87;;;;;;;;;;5095458;28;20511;-57
2021/10/02 23:40:21;;;;;;;6.13;4.73;;;;;;;;;;5095181;28;20485;-55
2021/10/02 23:42:48;;;;;;;4.67;2.90;;;;;;;;;;5095116;28;20472;-61
2021/10/02 23:45:17;;;;;;;14.10;12.13;;;;;;;;;;5074803;28;20461;-59
2021/10/02 23:47:47;;;;;;;6.57;4.10;;;;;;;;;;5080974;28;20468;-60
2021/10/02 23:50:15;;;;;;;13.23;10.67;;;;;;;;;;5094514;28;20452;-59
2021/10/02 23:52:48;;;;;;;9.30;3.77;;;;;;;;;;5093792;28;20472;-57
2021/10/02 23:55:20;;;;;;;6.97;5.00;;;;;;;;;;5094789;28;20448;-59
2021/10/02 23:57:51;;;;;;;7.60;4.40;;;;;;;;;;5093144;28;20508;-53
